sensor_id;sensor_type;location;lat;lon;timestamp;P1;durP1;ratioP1;P2;durP2;ratioP2
64225;SDS011;50545;56.064;26.178;2023-05-07T00:00:22;2.75;;;1.90;;
64225;SDS011;50545;56.064;26.178;2023-05-07T00:02:49;2.60;;;1.70;;
64225;SDS011;50545;56.064;26.178;2023-05-07T00:05:16;4.07;;;2.00;;
64225;SDS011;50545;56.064;26.178;2023-05-07T00:07:44;2.90;;;1.90;;
64225;SDS011;50545;56.064;26.178;2023-05-07T00:10:12;2.53;;;1.70;;
64225;SDS011;50545;56.064;26.178;2023-05-07T00:12:40;2.80;;;1.80;;
64225;SDS011;50545;56.064;26.178;2023-05-07T00:15:07;2.45;;;1.58;;
64225;SDS011;50545;56.064;26.178;2023-05-07T00:17:35;4.13;;;1.85;;
64225;SDS011;50545;56.064;26.178;2023-05-07T00:20:03;2.22;;;1.70;;
64225;SDS011;50545;56.064;26.178;2023-05-07T00:22:31;3.95;;;2.33;;
64225;SDS011;50545;56.064;26.178;2023-05-07T00:24:59;2.13;;;1.50;;
64225;SDS011;50545;56.064;26.178;2023-05-07T00:27:26;2.78;;;1.60;;
64225;SDS011;50545;56.064;26.178;2023-05-07T00:29:54;3.03;;;1.80;;
64225;SDS011;50545;56.064;26.178;2023-05-07T00:32:21;6.10;;;1.98;;
64225;SDS011;50545;56.064;26.178;2023-05-07T00:34:48;4.65;;;2.00;;
64225;SDS011;50545;56.064;26.178;2023-05-07T00:37:17;3.55;;;2.00;;
64225;SDS011;50545;56.064;26.178;2023-05-07T00:39:44;3.95;;;2.17;;
64225;SDS011;50545;56.064;26.178;2023-05-07T00:42:11;3.17;;;2.00;;
64225;SDS011;50545;56.064;26.178;2023-05-07T00:44:39;3.85;;;2.00;;
64225;SDS011;50545;56.064;26.178;2023-05-07T00:47:06;4.43;;;2.00;;
64225;SDS011;50545;56.064;26.178;2023-05-07T00:49:51;3.47;;;2.00;;
64225;SDS011;50545;56.064;26.178;2023-05-07T00:52:19;5.32;;;2.45;;
64225;SDS011;50545;56.064;26.178;2023-05-07T00:54:50;5.93;;;1.77;;
64225;SDS011;50545;56.064;26.178;2023-05-07T00:57:18;4.13;;;2.08;;
64225;SDS011;50545;56.064;26.178;2023-05-07T00:59:47;4.45;;;1.98;;
64225;SDS011;50545;56.064;26.178;2023-05-07T01:02:15;4.88;;;2.13;;
64225;SDS011;50545;56.064;26.178;2023-05-07T01:04:43;2.67;;;1.90;;
64225;SDS011;50545;56.064;26.178;2023-05-07T01:07:11;5.18;;;2.00;;
64225;SDS011;50545;56.064;26.178;2023-05-07T01:09:38;4.05;;;2.22;;
64225;SDS011;50545;56.064;26.178;2023-05-07T01:12:06;3.72;;;1.98;;
64225;SDS011;50545;56.064;26.178;2023-05-07T01:14:34;3.30;;;1.75;;
64225;SDS011;50545;56.064;26.178;2023-05-07T01:17:02;4.22;;;1.98;;
64225;SDS011;50545;56.064;26.178;2023-05-07T01:19:29;3.08;;;2.15;;
64225;SDS011;50545;56.064;26.178;2023-05-07T01:21:59;4.60;;;1.60;;
64225;SDS011;50545;56.064;26.178;2023-05-07T01:24:31;3.08;;;1.77;;
64225;SDS011;50545;56.064;26.178;2023-05-07T01:26:59;3.33;;;1.95;;
64225;SDS011;50545;56.064;26.178;2023-05-07T01:29:28;4.05;;;2.10;;
64225;SDS011;50545;56.064;26.178;2023-05-07T01:31:57;3.67;;;1.88;;
64225;SDS011;50545;56.064;26.178;2023-05-07T01:34:27;5.60;;;2.33;;
64225;SDS011;50545;56.064;26.178;2023-05-07T01:36:57;5.25;;;1.98;;
64225;SDS011;50545;56.064;26.178;2023-05-07T01:39:26;3.13;;;1.83;;
64225;SDS011;50545;56.064;26.178;2023-05-07T01:41:55;3.35;;;1.80;;
64225;SDS011;50545;56.064;26.178;2023-05-07T01:44:23;3.33;;;1.83;;
64225;SDS011;50545;56.064;26.178;2023-05-07T01:46:50;6.78;;;2.38;;
64225;SDS011;50545;56.064;26.178;2023-05-07T01:49:18;3.45;;;2.17;;
64225;SDS011;50545;56.064;26.178;2023-05-07T01:51:46;3.13;;;1.90;;
64225;SDS011;50545;56.064;26.178;2023-05-07T01:54:13;3.22;;;1.88;;
64225;SDS011;50545;56.064;26.178;2023-05-07T01:56:41;3.10;;;1.90;;
64225;SDS011;50545;56.064;26.178;2023-05-07T01:59:08;3.10;;;1.88;;
64225;SDS011;50545;56.064;26.178;2023-05-07T02:01:35;3.38;;;1.90;;
64225;SDS011;50545;56.064;26.178;2023-05-07T02:04:02;3.33;;;1.73;;
64225;SDS011;50545;56.064;26.178;2023-05-07T02:06:30;3.47;;;2.03;;
64225;SDS011;50545;56.064;26.178;2023-05-07T02:08:58;4.38;;;2.03;;
64225;SDS011;50545;56.064;26.178;2023-05-07T02:11:25;4.20;;;1.90;;
64225;SDS011;50545;56.064;26.178;2023-05-07T02:13:52;4.78;;;2.10;;
64225;SDS011;50545;56.064;26.178;2023-05-07T02:16:19;4.05;;;2.10;;
64225;SDS011;50545;56.064;26.178;2023-05-07T02:18:48;3.83;;;2.05;;
64225;SDS011;50545;56.064;26.178;2023-05-07T02:21:15;3.13;;;1.90;;
64225;SDS011;50545;56.064;26.178;2023-05-07T02:23:42;3.42;;;2.10;;
64225;SDS011;50545;56.064;26.178;2023-05-07T02:26:10;3.42;;;1.90;;
64225;SDS011;50545;56.064;26.178;2023-05-07T02:28:37;4.00;;;2.00;;
64225;SDS011;50545;56.064;26.178;2023-05-07T02:31:05;3.85;;;2.15;;
64225;SDS011;50545;56.064;26.178;2023-05-07T02:33:32;3.97;;;2.08;;
64225;SDS011;50545;56.064;26.178;2023-05-07T02:36:08;3.47;;;2.00;;
64225;SDS011;50545;56.064;26.178;2023-05-07T02:38:36;2.72;;;1.80;;
64225;SDS011;50545;56.064;26.178;2023-05-07T02:41:04;5.03;;;2.05;;
64225;SDS011;50545;56.064;26.178;2023-05-07T02:43:31;3.80;;;1.95;;
64225;SDS011;50545;56.064;26.178;2023-05-07T02:46:02;4.60;;;2.00;;
64225;SDS011;50545;56.064;26.178;2023-05-07T02:48:32;2.35;;;1.63;;
64225;SDS011;50545;56.064;26.178;2023-05-07T02:51:00;4.10;;;1.77;;
64225;SDS011;50545;56.064;26.178;2023-05-07T02:53:28;4.03;;;1.98;;
64225;SDS011;50545;56.064;26.178;2023-05-07T02:55:56;2.85;;;1.75;;
64225;SDS011;50545;56.064;26.178;2023-05-07T02:58:25;3.60;;;2.10;;
64225;SDS011;50545;56.064;26.178;2023-05-07T03:00:52;3.83;;;2.00;;
64225;SDS011;50545;56.064;26.178;2023-05-07T03:03:21;2.45;;;1.83;;
64225;SDS011;50545;56.064;26.178;2023-05-07T03:05:48;3.63;;;2.22;;
64225;SDS011;50545;56.064;26.178;2023-05-07T03:08:16;2.58;;;1.73;;
64225;SDS011;50545;56.064;26.178;2023-05-07T03:10:43;3.25;;;2.10;;
64225;SDS011;50545;56.064;26.178;2023-05-07T03:13:10;4.35;;;1.88;;
64225;SDS011;50545;56.064;26.178;2023-05-07T03:15:38;3.25;;;1.90;;
64225;SDS011;50545;56.064;26.178;2023-05-07T03:18:05;3.83;;;1.88;;
64225;SDS011;50545;56.064;26.178;2023-05-07T03:20:33;3.60;;;2.13;;
64225;SDS011;50545;56.064;26.178;2023-05-07T03:23:00;4.20;;;1.98;;
64225;SDS011;50545;56.064;26.178;2023-05-07T03:25:27;2.90;;;1.80;;
64225;SDS011;50545;56.064;26.178;2023-05-07T03:27:56;3.15;;;1.80;;
64225;SDS011;50545;56.064;26.178;2023-05-07T03:30:23;3.20;;;1.80;;
64225;SDS011;50545;56.064;26.178;2023-05-07T03:32:51;2.80;;;1.80;;
64225;SDS011;50545;56.064;26.178;2023-05-07T03:35:18;2.88;;;1.90;;
64225;SDS011;50545;56.064;26.178;2023-05-07T03:37:45;5.85;;;2.28;;
64225;SDS011;50545;56.064;26.178;2023-05-07T03:40:12;5.78;;;2.25;;
64225;SDS011;50545;56.064;26.178;2023-05-07T03:42:40;6.35;;;2.65;;
64225;SDS011;50545;56.064;26.178;2023-05-07T03:45:07;5.22;;;2.30;;
64225;SDS011;50545;56.064;26.178;2023-05-07T03:47:35;4.80;;;2.13;;
64225;SDS011;50545;56.064;26.178;2023-05-07T03:50:03;2.42;;;1.60;;
64225;SDS011;50545;56.064;26.178;2023-05-07T03:52:30;4.60;;;1.90;;
64225;SDS011;50545;56.064;26.178;2023-05-07T03:54:57;5.00;;;2.47;;
64225;SDS011;50545;56.064;26.178;2023-05-07T03:57:24;4.13;;;2.30;;
64225;SDS011;50545;56.064;26.178;2023-05-07T03:59:52;3.42;;;1.90;;
64225;SDS011;50545;56.064;26.178;2023-05-07T04:02:19;2.95;;;2.00;;
64225;SDS011;50545;56.064;26.178;2023-05-07T04:04:48;3.78;;;1.70;;
64225;SDS011;50545;56.064;26.178;2023-05-07T04:07:16;3.20;;;2.13;;
64225;SDS011;50545;56.064;26.178;2023-05-07T04:09:43;3.53;;;1.95;;
64225;SDS011;50545;56.064;26.178;2023-05-07T04:12:10;4.60;;;2.47;;
64225;SDS011;50545;56.064;26.178;2023-05-07T04:14:37;4.78;;;2.50;;
64225;SDS011;50545;56.064;26.178;2023-05-07T04:17:05;3.28;;;2.05;;
64225;SDS011;50545;56.064;26.178;2023-05-07T04:19:33;3.38;;;1.95;;
64225;SDS011;50545;56.064;26.178;2023-05-07T04:22:00;3.03;;;2.03;;
64225;SDS011;50545;56.064;26.178;2023-05-07T04:24:30;2.67;;;1.70;;
64225;SDS011;50545;56.064;26.178;2023-05-07T04:26:59;4.63;;;2.00;;
64225;SDS011;50545;56.064;26.178;2023-05-07T04:29:26;2.72;;;1.67;;
64225;SDS011;50545;56.064;26.178;2023-05-07T04:31:55;3.63;;;1.95;;
64225;SDS011;50545;56.064;26.178;2023-05-07T04:34:23;4.32;;;2.13;;
64225;SDS011;50545;56.064;26.178;2023-05-07T04:36:50;2.13;;;1.60;;
64225;SDS011;50545;56.064;26.178;2023-05-07T04:39:17;2.15;;;1.80;;
64225;SDS011;50545;56.064;26.178;2023-05-07T04:41:44;2.03;;;1.55;;
64225;SDS011;50545;56.064;26.178;2023-05-07T04:44:11;3.40;;;2.00;;
64225;SDS011;50545;56.064;26.178;2023-05-07T04:46:39;2.55;;;1.83;;
64225;SDS011;50545;56.064;26.178;2023-05-07T04:49:06;3.85;;;1.90;;
64225;SDS011;50545;56.064;26.178;2023-05-07T04:51:33;3.20;;;1.48;;
64225;SDS011;50545;56.064;26.178;2023-05-07T04:54:00;2.42;;;1.73;;
64225;SDS011;50545;56.064;26.178;2023-05-07T04:56:28;2.05;;;1.55;;
64225;SDS011;50545;56.064;26.178;2023-05-07T04:58:56;3.25;;;2.03;;
64225;SDS011;50545;56.064;26.178;2023-05-07T05:01:23;2.90;;;1.77;;
64225;SDS011;50545;56.064;26.178;2023-05-07T05:03:51;3.03;;;1.92;;
64225;SDS011;50545;56.064;26.178;2023-05-07T05:06:18;2.10;;;1.70;;
64225;SDS011;50545;56.064;26.178;2023-05-07T05:08:45;3.00;;;2.03;;
64225;SDS011;50545;56.064;26.178;2023-05-07T05:11:12;3.75;;;2.08;;
64225;SDS011;50545;56.064;26.178;2023-05-07T05:13:40;3.33;;;1.90;;
64225;SDS011;50545;56.064;26.178;2023-05-07T05:16:07;4.20;;;2.17;;
64225;SDS011;50545;56.064;26.178;2023-05-07T05:18:34;3.08;;;1.88;;
64225;SDS011;50545;56.064;26.178;2023-05-07T05:21:02;3.28;;;2.10;;
64225;SDS011;50545;56.064;26.178;2023-05-07T05:23:29;3.90;;;2.00;;
64225;SDS011;50545;56.064;26.178;2023-05-07T05:25:57;2.90;;;2.00;;
64225;SDS011;50545;56.064;26.178;2023-05-07T05:28:24;2.83;;;1.83;;
64225;SDS011;50545;56.064;26.178;2023-05-07T05:30:51;3.45;;;1.73;;
64225;SDS011;50545;56.064;26.178;2023-05-07T05:33:19;3.03;;;2.10;;
64225;SDS011;50545;56.064;26.178;2023-05-07T05:35:46;3.53;;;1.63;;
64225;SDS011;50545;56.064;26.178;2023-05-07T05:38:13;3.72;;;2.08;;
64225;SDS011;50545;56.064;26.178;2023-05-07T05:40:41;3.53;;;1.88;;
64225;SDS011;50545;56.064;26.178;2023-05-07T05:43:08;2.95;;;1.95;;
64225;SDS011;50545;56.064;26.178;2023-05-07T05:45:35;2.40;;;1.58;;
64225;SDS011;50545;56.064;26.178;2023-05-07T05:48:02;2.95;;;1.70;;
64225;SDS011;50545;56.064;26.178;2023-05-07T05:50:30;2.83;;;1.77;;
64225;SDS011;50545;56.064;26.178;2023-05-07T05:52:57;3.58;;;2.03;;
64225;SDS011;50545;56.064;26.178;2023-05-07T05:55:25;2.67;;;1.90;;
64225;SDS011;50545;56.064;26.178;2023-05-07T05:57:53;2.60;;;1.80;;
64225;SDS011;50545;56.064;26.178;2023-05-07T06:00:20;3.17;;;1.92;;
64225;SDS011;50545;56.064;26.178;2023-05-07T06:02:50;3.38;;;1.90;;
64225;SDS011;50545;56.064;26.178;2023-05-07T06:05:18;3.03;;;1.83;;
64225;SDS011;50545;56.064;26.178;2023-05-07T06:07:45;4.70;;;2.17;;
64225;SDS011;50545;56.064;26.178;2023-05-07T06:10:12;2.42;;;1.55;;
64225;SDS011;50545;56.064;26.178;2023-05-07T06:12:40;3.10;;;1.90;;
64225;SDS011;50545;56.064;26.178;2023-05-07T06:15:07;3.28;;;1.83;;
64225;SDS011;50545;56.064;26.178;2023-05-07T06:17:34;2.65;;;1.80;;
64225;SDS011;50545;56.064;26.178;2023-05-07T06:20:02;2.83;;;1.80;;
64225;SDS011;50545;56.064;26.178;2023-05-07T06:22:29;2.28;;;1.70;;
64225;SDS011;50545;56.064;26.178;2023-05-07T06:24:56;2.75;;;1.70;;
64225;SDS011;50545;56.064;26.178;2023-05-07T06:27:23;2.92;;;1.90;;
64225;SDS011;50545;56.064;26.178;2023-05-07T06:29:51;2.25;;;1.77;;
64225;SDS011;50545;56.064;26.178;2023-05-07T06:32:18;3.30;;;2.00;;
64225;SDS011;50545;56.064;26.178;2023-05-07T06:34:45;2.50;;;1.52;;
64225;SDS011;50545;56.064;26.178;2023-05-07T06:37:13;4.22;;;2.20;;
64225;SDS011;50545;56.064;26.178;2023-05-07T06:39:40;3.22;;;2.00;;
64225;SDS011;50545;56.064;26.178;2023-05-07T06:42:07;1.67;;;1.40;;
64225;SDS011;50545;56.064;26.178;2023-05-07T06:44:34;1.95;;;1.50;;
64225;SDS011;50545;56.064;26.178;2023-05-07T06:47:01;2.05;;;1.48;;
64225;SDS011;50545;56.064;26.178;2023-05-07T06:49:28;2.20;;;1.73;;
64225;SDS011;50545;56.064;26.178;2023-05-07T06:51:56;2.78;;;1.65;;
64225;SDS011;50545;56.064;26.178;2023-05-07T06:54:23;3.22;;;1.80;;
64225;SDS011;50545;56.064;26.178;2023-05-07T06:56:50;1.52;;;1.23;;
64225;SDS011;50545;56.064;26.178;2023-05-07T06:59:17;2.60;;;1.55;;
64225;SDS011;50545;56.064;26.178;2023-05-07T07:01:45;2.97;;;1.50;;
64225;SDS011;50545;56.064;26.178;2023-05-07T07:04:13;1.50;;;0.98;;
64225;SDS011;50545;56.064;26.178;2023-05-07T07:06:40;1.08;;;0.98;;
64225;SDS011;50545;56.064;26.178;2023-05-07T07:09:07;1.48;;;1.02;;
64225;SDS011;50545;56.064;26.178;2023-05-07T07:11:34;1.92;;;1.35;;
64225;SDS011;50545;56.064;26.178;2023-05-07T07:14:01;1.75;;;0.90;;
64225;SDS011;50545;56.064;26.178;2023-05-07T07:16:29;1.20;;;0.90;;
64225;SDS011;50545;56.064;26.178;2023-05-07T07:18:56;1.60;;;1.30;;
64225;SDS011;50545;56.064;26.178;2023-05-07T07:21:23;1.30;;;1.05;;
64225;SDS011;50545;56.064;26.178;2023-05-07T07:23:50;1.85;;;1.50;;
64225;SDS011;50545;56.064;26.178;2023-05-07T07:26:18;1.63;;;0.90;;
64225;SDS011;50545;56.064;26.178;2023-05-07T07:28:45;1.55;;;1.27;;
64225;SDS011;50545;56.064;26.178;2023-05-07T07:31:13;3.80;;;1.77;;
64225;SDS011;50545;56.064;26.178;2023-05-07T07:33:40;1.70;;;1.60;;
64225;SDS011;50545;56.064;26.178;2023-05-07T07:36:07;1.77;;;1.10;;
64225;SDS011;50545;56.064;26.178;2023-05-07T07:38:36;2.20;;;1.80;;
64225;SDS011;50545;56.064;26.178;2023-05-07T07:41:03;2.70;;;1.90;;
64225;SDS011;50545;56.064;26.178;2023-05-07T07:43:31;2.17;;;1.10;;
64225;SDS011;50545;56.064;26.178;2023-05-07T07:45:58;1.13;;;0.90;;
64225;SDS011;50545;56.064;26.178;2023-05-07T07:48:25;1.35;;;0.98;;
64225;SDS011;50545;56.064;26.178;2023-05-07T07:50:52;2.33;;;1.70;;
64225;SDS011;50545;56.064;26.178;2023-05-07T07:53:19;1.73;;;1.23;;
64225;SDS011;50545;56.064;26.178;2023-05-07T07:55:46;3.35;;;1.35;;
64225;SDS011;50545;56.064;26.178;2023-05-07T07:58:13;1.00;;;1.00;;
64225;SDS011;50545;56.064;26.178;2023-05-07T08:00:40;0.85;;;0.82;;
64225;SDS011;50545;56.064;26.178;2023-05-07T08:03:11;1.55;;;1.20;;
64225;SDS011;50545;56.064;26.178;2023-05-07T08:05:38;2.38;;;1.98;;
64225;SDS011;50545;56.064;26.178;2023-05-07T08:08:05;2.22;;;1.55;;
64225;SDS011;50545;56.064;26.178;2023-05-07T08:10:33;2.35;;;1.63;;
64225;SDS011;50545;56.064;26.178;2023-05-07T08:13:01;1.60;;;1.10;;
64225;SDS011;50545;56.064;26.178;2023-05-07T08:15:30;2.53;;;1.63;;
64225;SDS011;50545;56.064;26.178;2023-05-07T08:17:58;3.03;;;1.83;;
64225;SDS011;50545;56.064;26.178;2023-05-07T08:20:26;2.65;;;1.90;;
64225;SDS011;50545;56.064;26.178;2023-05-07T08:22:54;1.98;;;1.27;;
64225;SDS011;50545;56.064;26.178;2023-05-07T08:25:22;1.67;;;1.23;;
64225;SDS011;50545;56.064;26.178;2023-05-07T08:27:49;1.92;;;1.30;;
64225;SDS011;50545;56.064;26.178;2023-05-07T08:30:16;2.58;;;1.67;;
64225;SDS011;50545;56.064;26.178;2023-05-07T08:32:43;1.55;;;1.45;;
64225;SDS011;50545;56.064;26.178;2023-05-07T08:35:10;2.08;;;1.60;;
64225;SDS011;50545;56.064;26.178;2023-05-07T08:37:38;2.97;;;1.33;;
64225;SDS011;50545;56.064;26.178;2023-05-07T08:40:05;1.55;;;1.40;;
64225;SDS011;50545;56.064;26.178;2023-05-07T08:42:37;1.52;;;1.35;;
64225;SDS011;50545;56.064;26.178;2023-05-07T08:45:09;1.48;;;1.38;;
64225;SDS011;50545;56.064;26.178;2023-05-07T08:47:42;2.47;;;1.30;;
64225;SDS011;50545;56.064;26.178;2023-05-07T08:50:13;1.77;;;1.38;;
64225;SDS011;50545;56.064;26.178;2023-05-07T08:52:41;2.47;;;1.60;;
64225;SDS011;50545;56.064;26.178;2023-05-07T08:55:08;1.42;;;1.13;;
64225;SDS011;50545;56.064;26.178;2023-05-07T08:57:36;1.15;;;1.05;;
64225;SDS011;50545;56.064;26.178;2023-05-07T09:00:06;1.90;;;1.40;;
64225;SDS011;50545;56.064;26.178;2023-05-07T09:02:36;1.90;;;1.35;;
64225;SDS011;50545;56.064;26.178;2023-05-07T09:05:04;3.65;;;1.65;;
64225;SDS011;50545;56.064;26.178;2023-05-07T09:07:32;1.67;;;1.10;;
64225;SDS011;50545;56.064;26.178;2023-05-07T09:10:01;3.05;;;1.85;;
64225;SDS011;50545;56.064;26.178;2023-05-07T09:12:31;0.88;;;0.77;;
64225;SDS011;50545;56.064;26.178;2023-05-07T09:14:59;2.13;;;1.40;;
64225;SDS011;50545;56.064;26.178;2023-05-07T09:17:26;0.60;;;0.60;;
64225;SDS011;50545;56.064;26.178;2023-05-07T09:19:54;2.13;;;1.52;;
64225;SDS011;50545;56.064;26.178;2023-05-07T09:22:22;1.88;;;1.60;;
64225;SDS011;50545;56.064;26.178;2023-05-07T09:24:49;1.73;;;1.58;;
64225;SDS011;50545;56.064;26.178;2023-05-07T09:27:17;2.25;;;1.55;;
64225;SDS011;50545;56.064;26.178;2023-05-07T09:29:44;2.08;;;1.38;;
64225;SDS011;50545;56.064;26.178;2023-05-07T09:32:11;1.27;;;1.17;;
64225;SDS011;50545;56.064;26.178;2023-05-07T09:34:40;1.83;;;1.35;;
64225;SDS011;50545;56.064;26.178;2023-05-07T09:37:08;2.33;;;1.52;;
64225;SDS011;50545;56.064;26.178;2023-05-07T09:39:41;1.92;;;1.45;;
64225;SDS011;50545;56.064;26.178;2023-05-07T09:42:10;2.13;;;1.63;;
64225;SDS011;50545;56.064;26.178;2023-05-07T09:44:38;1.75;;;1.48;;
64225;SDS011;50545;56.064;26.178;2023-05-07T09:47:06;1.83;;;1.30;;
64225;SDS011;50545;56.064;26.178;2023-05-07T09:49:35;3.00;;;1.15;;
64225;SDS011;50545;56.064;26.178;2023-05-07T09:52:04;1.38;;;0.98;;
64225;SDS011;50545;56.064;26.178;2023-05-07T09:54:36;2.03;;;1.30;;
64225;SDS011;50545;56.064;26.178;2023-05-07T09:57:10;1.05;;;1.00;;
64225;SDS011;50545;56.064;26.178;2023-05-07T09:59:42;1.58;;;0.95;;
64225;SDS011;50545;56.064;26.178;2023-05-07T10:02:10;1.48;;;1.38;;
64225;SDS011;50545;56.064;26.178;2023-05-07T10:04:38;1.65;;;1.20;;
64225;SDS011;50545;56.064;26.178;2023-05-07T10:07:07;1.80;;;1.40;;
64225;SDS011;50545;56.064;26.178;2023-05-07T10:09:35;2.17;;;1.60;;
64225;SDS011;50545;56.064;26.178;2023-05-07T10:12:05;2.25;;;1.30;;
64225;SDS011;50545;56.064;26.178;2023-05-07T10:14:32;2.22;;;1.67;;
64225;SDS011;50545;56.064;26.178;2023-05-07T10:17:01;2.10;;;1.20;;
64225;SDS011;50545;56.064;26.178;2023-05-07T10:19:29;1.23;;;0.85;;
64225;SDS011;50545;56.064;26.178;2023-05-07T10:22:01;2.13;;;1.60;;
64225;SDS011;50545;56.064;26.178;2023-05-07T10:24:32;1.27;;;1.17;;
64225;SDS011;50545;56.064;26.178;2023-05-07T10:27:04;4.00;;;1.40;;
64225;SDS011;50545;56.064;26.178;2023-05-07T10:35:00;1.52;;;1.23;;
64225;SDS011;50545;56.064;26.178;2023-05-07T10:37:29;1.77;;;1.15;;
64225;SDS011;50545;56.064;26.178;2023-05-07T10:39:57;2.25;;;1.38;;
64225;SDS011;50545;56.064;26.178;2023-05-07T10:42:24;1.05;;;0.73;;
64225;SDS011;50545;56.064;26.178;2023-05-07T10:44:52;2.13;;;1.17;;
64225;SDS011;50545;56.064;26.178;2023-05-07T10:47:19;1.08;;;0.98;;
64225;SDS011;50545;56.064;26.178;2023-05-07T10:52:20;3.58;;;1.42;;
64225;SDS011;50545;56.064;26.178;2023-05-07T10:57:41;2.47;;;1.13;;
64225;SDS011;50545;56.064;26.178;2023-05-07T11:03:04;1.33;;;1.20;;
64225;SDS011;50545;56.064;26.178;2023-05-07T11:05:34;2.05;;;1.15;;
64225;SDS011;50545;56.064;26.178;2023-05-07T11:08:04;0.93;;;0.93;;
64225;SDS011;50545;56.064;26.178;2023-05-07T11:10:53;2.95;;;1.02;;
64225;SDS011;50545;56.064;26.178;2023-05-07T11:16:20;1.88;;;1.20;;
64225;SDS011;50545;56.064;26.178;2023-05-07T11:18:55;1.73;;;1.20;;
64225;SDS011;50545;56.064;26.178;2023-05-07T11:21:36;1.25;;;1.15;;
64225;SDS011;50545;56.064;26.178;2023-05-07T11:24:05;2.05;;;1.10;;
64225;SDS011;50545;56.064;26.178;2023-05-07T11:26:46;1.10;;;1.00;;
64225;SDS011;50545;56.064;26.178;2023-05-07T11:29:16;1.30;;;1.20;;
64225;SDS011;50545;56.064;26.178;2023-05-07T11:31:53;2.63;;;1.20;;
64225;SDS011;50545;56.064;26.178;2023-05-07T11:34:22;3.55;;;1.50;;
64225;SDS011;50545;56.064;26.178;2023-05-07T11:36:50;0.90;;;0.88;;
64225;SDS011;50545;56.064;26.178;2023-05-07T11:39:31;0.80;;;0.80;;
64225;SDS011;50545;56.064;26.178;2023-05-07T11:42:00;0.95;;;0.90;;
64225;SDS011;50545;56.064;26.178;2023-05-07T11:47:29;1.43;;;1.33;;
64225;SDS011;50545;56.064;26.178;2023-05-07T11:49:57;1.42;;;0.77;;
64225;SDS011;50545;56.064;26.178;2023-05-07T11:52:32;2.42;;;1.33;;
64225;SDS011;50545;56.064;26.178;2023-05-07T11:55:01;1.60;;;1.40;;
64225;SDS011;50545;56.064;26.178;2023-05-07T11:57:30;1.38;;;1.15;;
64225;SDS011;50545;56.064;26.178;2023-05-07T11:59:59;1.08;;;0.95;;
64225;SDS011;50545;56.064;26.178;2023-05-07T12:02:28;0.30;;;0.30;;
64225;SDS011;50545;56.064;26.178;2023-05-07T12:04:56;0.80;;;0.80;;
64225;SDS011;50545;56.064;26.178;2023-05-07T12:07:23;2.28;;;1.50;;
64225;SDS011;50545;56.064;26.178;2023-05-07T12:09:51;2.58;;;1.25;;
64225;SDS011;50545;56.064;26.178;2023-05-07T12:12:19;1.73;;;1.38;;
64225;SDS011;50545;56.064;26.178;2023-05-07T12:14:47;1.65;;;1.40;;
64225;SDS011;50545;56.064;26.178;2023-05-07T12:17:15;2.95;;;1.30;;
64225;SDS011;50545;56.064;26.178;2023-05-07T12:19:44;1.77;;;0.98;;
64225;SDS011;50545;56.064;26.178;2023-05-07T12:22:11;2.50;;;1.10;;
64225;SDS011;50545;56.064;26.178;2023-05-07T12:24:57;1.13;;;0.93;;
64225;SDS011;50545;56.064;26.178;2023-05-07T12:27:25;1.45;;;1.10;;
64225;SDS011;50545;56.064;26.178;2023-05-07T12:29:53;1.48;;;1.30;;
64225;SDS011;50545;56.064;26.178;2023-05-07T12:32:20;2.33;;;1.48;;
64225;SDS011;50545;56.064;26.178;2023-05-07T12:34:51;1.00;;;0.73;;
64225;SDS011;50545;56.064;26.178;2023-05-07T12:37:27;1.85;;;1.08;;
64225;SDS011;50545;56.064;26.178;2023-05-07T12:40:10;1.67;;;1.38;;
64225;SDS011;50545;56.064;26.178;2023-05-07T12:42:39;1.58;;;1.23;;
64225;SDS011;50545;56.064;26.178;2023-05-07T12:45:07;2.95;;;1.30;;
64225;SDS011;50545;56.064;26.178;2023-05-07T12:47:43;2.45;;;1.10;;
64225;SDS011;50545;56.064;26.178;2023-05-07T12:50:15;1.35;;;1.10;;
64225;SDS011;50545;56.064;26.178;2023-05-07T12:52:43;1.30;;;1.10;;
64225;SDS011;50545;56.064;26.178;2023-05-07T12:55:12;1.20;;;1.10;;
64225;SDS011;50545;56.064;26.178;2023-05-07T12:57:45;1.27;;;1.10;;
64225;SDS011;50545;56.064;26.178;2023-05-07T13:00:15;1.65;;;1.20;;
64225;SDS011;50545;56.064;26.178;2023-05-07T13:02:43;1.38;;;1.08;;
64225;SDS011;50545;56.064;26.178;2023-05-07T13:05:12;1.45;;;1.00;;
64225;SDS011;50545;56.064;26.178;2023-05-07T13:07:40;2.15;;;1.20;;
64225;SDS011;50545;56.064;26.178;2023-05-07T13:10:08;1.20;;;1.02;;
64225;SDS011;50545;56.064;26.178;2023-05-07T13:12:36;1.63;;;1.10;;
64225;SDS011;50545;56.064;26.178;2023-05-07T13:15:03;2.13;;;1.13;;
64225;SDS011;50545;56.064;26.178;2023-05-07T13:17:30;1.27;;;1.10;;
64225;SDS011;50545;56.064;26.178;2023-05-07T13:19:58;1.40;;;1.20;;
64225;SDS011;50545;56.064;26.178;2023-05-07T13:22:25;1.27;;;1.17;;
64225;SDS011;50545;56.064;26.178;2023-05-07T13:24:52;1.02;;;0.88;;
64225;SDS011;50545;56.064;26.178;2023-05-07T13:27:20;1.83;;;1.00;;
64225;SDS011;50545;56.064;26.178;2023-05-07T13:29:47;1.73;;;1.10;;
64225;SDS011;50545;56.064;26.178;2023-05-07T13:32:14;1.08;;;0.93;;
64225;SDS011;50545;56.064;26.178;2023-05-07T13:34:42;1.48;;;0.88;;
64225;SDS011;50545;56.064;26.178;2023-05-07T13:37:09;0.28;;;0.28;;
64225;SDS011;50545;56.064;26.178;2023-05-07T13:39:37;0.95;;;0.85;;
64225;SDS011;50545;56.064;26.178;2023-05-07T13:42:04;1.38;;;1.10;;
64225;SDS011;50545;56.064;26.178;2023-05-07T13:44:32;1.40;;;1.02;;
64225;SDS011;50545;56.064;26.178;2023-05-07T13:46:59;1.75;;;1.30;;
64225;SDS011;50545;56.064;26.178;2023-05-07T13:49:27;1.27;;;1.17;;
64225;SDS011;50545;56.064;26.178;2023-05-07T13:51:54;1.20;;;1.05;;
64225;SDS011;50545;56.064;26.178;2023-05-07T13:54:22;0.95;;;0.85;;
64225;SDS011;50545;56.064;26.178;2023-05-07T13:56:50;1.77;;;1.20;;
64225;SDS011;50545;56.064;26.178;2023-05-07T13:59:17;2.25;;;1.38;;
64225;SDS011;50545;56.064;26.178;2023-05-07T14:01:44;1.83;;;1.20;;
64225;SDS011;50545;56.064;26.178;2023-05-07T14:04:12;1.67;;;1.33;;
64225;SDS011;50545;56.064;26.178;2023-05-07T14:06:39;1.40;;;1.00;;
64225;SDS011;50545;56.064;26.178;2023-05-07T14:09:06;0.80;;;0.70;;
64225;SDS011;50545;56.064;26.178;2023-05-07T14:11:34;1.63;;;1.25;;
64225;SDS011;50545;56.064;26.178;2023-05-07T14:14:01;1.10;;;1.00;;
64225;SDS011;50545;56.064;26.178;2023-05-07T14:16:29;1.05;;;0.95;;
64225;SDS011;50545;56.064;26.178;2023-05-07T14:18:56;0.75;;;0.75;;
64225;SDS011;50545;56.064;26.178;2023-05-07T14:21:24;1.27;;;1.17;;
64225;SDS011;50545;56.064;26.178;2023-05-07T14:23:51;0.85;;;0.75;;
64225;SDS011;50545;56.064;26.178;2023-05-07T14:26:18;2.13;;;1.25;;
64225;SDS011;50545;56.064;26.178;2023-05-07T14:28:47;3.03;;;1.27;;
64225;SDS011;50545;56.064;26.178;2023-05-07T14:31:14;1.95;;;1.23;;
64225;SDS011;50545;56.064;26.178;2023-05-07T14:33:41;1.40;;;1.30;;
64225;SDS011;50545;56.064;26.178;2023-05-07T14:36:09;2.25;;;1.13;;
64225;SDS011;50545;56.064;26.178;2023-05-07T14:38:36;2.15;;;1.30;;
64225;SDS011;50545;56.064;26.178;2023-05-07T14:41:03;1.05;;;0.63;;
64225;SDS011;50545;56.064;26.178;2023-05-07T14:43:30;1.83;;;1.20;;
64225;SDS011;50545;56.064;26.178;2023-05-07T14:45:58;1.00;;;0.90;;
64225;SDS011;50545;56.064;26.178;2023-05-07T14:48:25;1.52;;;1.17;;
64225;SDS011;50545;56.064;26.178;2023-05-07T14:50:52;2.85;;;1.30;;
64225;SDS011;50545;56.064;26.178;2023-05-07T14:53:20;1.13;;;1.02;;
64225;SDS011;50545;56.064;26.178;2023-05-07T14:55:48;0.93;;;0.82;;
64225;SDS011;50545;56.064;26.178;2023-05-07T14:58:15;2.03;;;1.00;;